sensor_id;sensor_type;location;lat;lon;timestamp;P1;durP1;ratioP1;P2;durP2;ratioP2
58017;SDS011;43810;50.860;19.226;2023-02-11T00:01:36;54.30;;;23.48;;
58017;SDS011;43810;50.860;19.226;2023-02-11T00:04:03;51.90;;;22.70;;
58017;SDS011;43810;50.860;19.226;2023-02-11T00:06:31;57.45;;;25.38;;
58017;SDS011;43810;50.860;19.226;2023-02-11T00:08:58;56.92;;;23.75;;
58017;SDS011;43810;50.860;19.226;2023-02-11T00:11:24;47.92;;;22.17;;
58017;SDS011;43810;50.860;19.226;2023-02-11T00:13:58;57.30;;;23.55;;
58017;SDS011;43810;50.860;19.226;2023-02-11T00:16:25;54.97;;;23.02;;
58017;SDS011;43810;50.860;19.226;2023-02-11T00:18:52;53.92;;;23.70;;
58017;SDS011;43810;50.860;19.226;2023-02-11T00:21:22;59.00;;;23.52;;
58017;SDS011;43810;50.860;19.226;2023-02-11T00:23:50;52.08;;;23.33;;
58017;SDS011;43810;50.860;19.226;2023-02-11T00:26:24;51.90;;;23.45;;
58017;SDS011;43810;50.860;19.226;2023-02-11T00:28:53;51.28;;;23.33;;
58017;SDS011;43810;50.860;19.226;2023-02-11T00:31:19;46.97;;;21.02;;
58017;SDS011;43810;50.860;19.226;2023-02-11T00:33:47;50.35;;;22.60;;
58017;SDS011;43810;50.860;19.226;2023-02-11T00:36:13;52.08;;;23.45;;
58017;SDS011;43810;50.860;19.226;2023-02-11T00:38:45;47.88;;;21.63;;
58017;SDS011;43810;50.860;19.226;2023-02-11T00:41:12;56.90;;;22.20;;
58017;SDS011;43810;50.860;19.226;2023-02-11T00:43:39;54.65;;;21.95;;
58017;SDS011;43810;50.860;19.226;2023-02-11T00:46:05;52.40;;;21.30;;
58017;SDS011;43810;50.860;19.226;2023-02-11T00:48:32;61.22;;;24.05;;
58017;SDS011;43810;50.860;19.226;2023-02-11T00:50:58;55.60;;;24.08;;
58017;SDS011;43810;50.860;19.226;2023-02-11T00:53:25;57.67;;;22.98;;
58017;SDS011;43810;50.860;19.226;2023-02-11T00:55:51;55.45;;;23.25;;
58017;SDS011;43810;50.860;19.226;2023-02-11T00:58:17;56.60;;;22.23;;
58017;SDS011;43810;50.860;19.226;2023-02-11T01:00:42;60.45;;;23.50;;
58017;SDS011;43810;50.860;19.226;2023-02-11T01:03:08;62.28;;;23.95;;
58017;SDS011;43810;50.860;19.226;2023-02-11T01:05:34;58.42;;;23.83;;
58017;SDS011;43810;50.860;19.226;2023-02-11T01:08:00;57.17;;;24.60;;
58017;SDS011;43810;50.860;19.226;2023-02-11T01:10:26;58.88;;;23.92;;
58017;SDS011;43810;50.860;19.226;2023-02-11T01:12:53;57.85;;;23.02;;
58017;SDS011;43810;50.860;19.226;2023-02-11T01:15:19;52.75;;;23.83;;
58017;SDS011;43810;50.860;19.226;2023-02-11T01:17:46;57.78;;;22.95;;
58017;SDS011;43810;50.860;19.226;2023-02-11T01:20:13;46.90;;;20.75;;
58017;SDS011;43810;50.860;19.226;2023-02-11T01:22:41;50.90;;;21.70;;
58017;SDS011;43810;50.860;19.226;2023-02-11T01:25:07;57.15;;;23.60;;
58017;SDS011;43810;50.860;19.226;2023-02-11T01:27:34;56.92;;;22.50;;
58017;SDS011;43810;50.860;19.226;2023-02-11T01:30:00;53.42;;;23.25;;
58017;SDS011;43810;50.860;19.226;2023-02-11T01:32:26;62.33;;;23.95;;
58017;SDS011;43810;50.860;19.226;2023-02-11T01:34:51;50.33;;;22.75;;
58017;SDS011;43810;50.860;19.226;2023-02-11T01:37:17;50.25;;;22.60;;
58017;SDS011;43810;50.860;19.226;2023-02-11T01:39:43;62.65;;;24.85;;
58017;SDS011;43810;50.860;19.226;2023-02-11T01:42:11;53.67;;;23.38;;
58017;SDS011;43810;50.860;19.226;2023-02-11T01:44:41;65.43;;;24.70;;
58017;SDS011;43810;50.860;19.226;2023-02-11T01:47:07;53.83;;;24.17;;
58017;SDS011;43810;50.860;19.226;2023-02-11T01:49:33;58.13;;;23.58;;
58017;SDS011;43810;50.860;19.226;2023-02-11T01:52:20;58.13;;;23.58;;
58017;SDS011;43810;50.860;19.226;2023-02-11T01:54:52;56.60;;;22.52;;
58017;SDS011;43810;50.860;19.226;2023-02-11T01:57:46;54.35;;;22.83;;
58017;SDS011;43810;50.860;19.226;2023-02-11T02:00:18;53.70;;;23.85;;
58017;SDS011;43810;50.860;19.226;2023-02-11T02:10:40;61.42;;;24.00;;
58017;SDS011;43810;50.860;19.226;2023-02-11T02:13:08;59.17;;;24.70;;
58017;SDS011;43810;50.860;19.226;2023-02-11T02:15:35;60.72;;;23.73;;
58017;SDS011;43810;50.860;19.226;2023-02-11T02:27:02;56.80;;;25.40;;
58017;SDS011;43810;50.860;19.226;2023-02-11T02:43:45;56.53;;;24.85;;
58017;SDS011;43810;50.860;19.226;2023-02-11T02:46:15;55.92;;;25.35;;
58017;SDS011;43810;50.860;19.226;2023-02-11T02:48:43;61.78;;;25.13;;
58017;SDS011;43810;50.860;19.226;2023-02-11T02:51:20;60.40;;;25.25;;
58017;SDS011;43810;50.860;19.226;2023-02-11T03:10:16;56.42;;;23.50;;
58017;SDS011;43810;50.860;19.226;2023-02-11T03:12:48;59.22;;;24.40;;
58017;SDS011;43810;50.860;19.226;2023-02-11T03:15:16;57.03;;;25.17;;
58017;SDS011;43810;50.860;19.226;2023-02-11T03:17:44;58.80;;;25.50;;
58017;SDS011;43810;50.860;19.226;2023-02-11T03:20:15;60.00;;;24.75;;
58017;SDS011;43810;50.860;19.226;2023-02-11T03:22:51;64.13;;;24.58;;
58017;SDS011;43810;50.860;19.226;2023-02-11T03:25:33;66.47;;;24.00;;
58017;SDS011;43810;50.860;19.226;2023-02-11T03:28:11;70.20;;;27.30;;
58017;SDS011;43810;50.860;19.226;2023-02-11T03:33:36;61.25;;;25.25;;
58017;SDS011;43810;50.860;19.226;2023-02-11T03:36:11;59.13;;;25.30;;
58017;SDS011;43810;50.860;19.226;2023-02-11T03:38:45;60.72;;;26.92;;
58017;SDS011;43810;50.860;19.226;2023-02-11T03:41:16;61.95;;;27.20;;
58017;SDS011;43810;50.860;19.226;2023-02-11T03:43:49;62.70;;;24.75;;
58017;SDS011;43810;50.860;19.226;2023-02-11T03:46:20;56.63;;;23.40;;
58017;SDS011;43810;50.860;19.226;2023-02-11T03:49:00;63.22;;;25.40;;
58017;SDS011;43810;50.860;19.226;2023-02-11T03:51:28;55.03;;;22.48;;
58017;SDS011;43810;50.860;19.226;2023-02-11T03:53:58;60.22;;;24.80;;
58017;SDS011;43810;50.860;19.226;2023-02-11T03:56:29;64.07;;;25.42;;
58017;SDS011;43810;50.860;19.226;2023-02-11T03:58:58;57.33;;;25.65;;
58017;SDS011;43810;50.860;19.226;2023-02-11T04:01:23;52.22;;;22.73;;
58017;SDS011;43810;50.860;19.226;2023-02-11T04:03:50;51.15;;;21.20;;
58017;SDS011;43810;50.860;19.226;2023-02-11T04:06:15;66.43;;;23.98;;
58017;SDS011;43810;50.860;19.226;2023-02-11T04:08:41;57.38;;;24.77;;
58017;SDS011;43810;50.860;19.226;2023-02-11T04:11:07;44.70;;;21.10;;
58017;SDS011;43810;50.860;19.226;2023-02-11T04:13:33;55.00;;;23.75;;
58017;SDS011;43810;50.860;19.226;2023-02-11T04:15:59;48.20;;;22.75;;
58017;SDS011;43810;50.860;19.226;2023-02-11T04:18:25;59.33;;;25.02;;
58017;SDS011;43810;50.860;19.226;2023-02-11T04:20:50;57.25;;;23.42;;
58017;SDS011;43810;50.860;19.226;2023-02-11T04:23:17;58.10;;;25.25;;
58017;SDS011;43810;50.860;19.226;2023-02-11T04:25:42;55.85;;;23.95;;
58017;SDS011;43810;50.860;19.226;2023-02-11T04:28:08;54.63;;;23.73;;
58017;SDS011;43810;50.860;19.226;2023-02-11T04:30:34;63.58;;;22.63;;
58017;SDS011;43810;50.860;19.226;2023-02-11T04:33:00;53.45;;;22.27;;
58017;SDS011;43810;50.860;19.226;2023-02-11T04:35:26;53.08;;;21.75;;
58017;SDS011;43810;50.860;19.226;2023-02-11T04:37:52;62.70;;;24.58;;
58017;SDS011;43810;50.860;19.226;2023-02-11T04:40:17;60.58;;;23.70;;
58017;SDS011;43810;50.860;19.226;2023-02-11T04:42:44;53.50;;;23.67;;
58017;SDS011;43810;50.860;19.226;2023-02-11T04:45:09;56.45;;;24.73;;
58017;SDS011;43810;50.860;19.226;2023-02-11T04:47:35;58.80;;;25.35;;
58017;SDS011;43810;50.860;19.226;2023-02-11T04:50:02;50.60;;;24.23;;
58017;SDS011;43810;50.860;19.226;2023-02-11T04:52:28;59.13;;;25.58;;
58017;SDS011;43810;50.860;19.226;2023-02-11T04:54:54;52.83;;;23.92;;
58017;SDS011;43810;50.860;19.226;2023-02-11T04:57:20;54.55;;;23.20;;
58017;SDS011;43810;50.860;19.226;2023-02-11T04:59:45;53.15;;;22.02;;
58017;SDS011;43810;50.860;19.226;2023-02-11T05:02:12;54.58;;;21.70;;
58017;SDS011;43810;50.860;19.226;2023-02-11T05:04:38;54.75;;;21.02;;
58017;SDS011;43810;50.860;19.226;2023-02-11T05:07:04;48.28;;;22.33;;
58017;SDS011;43810;50.860;19.226;2023-02-11T05:09:29;47.30;;;22.25;;
58017;SDS011;43810;50.860;19.226;2023-02-11T05:11:55;51.58;;;22.48;;
58017;SDS011;43810;50.860;19.226;2023-02-11T05:14:21;55.38;;;23.35;;
58017;SDS011;43810;50.860;19.226;2023-02-11T05:16:47;52.33;;;23.35;;
58017;SDS011;43810;50.860;19.226;2023-02-11T05:19:13;50.22;;;21.52;;
58017;SDS011;43810;50.860;19.226;2023-02-11T05:21:39;49.90;;;21.77;;
58017;SDS011;43810;50.860;19.226;2023-02-11T05:24:04;52.75;;;22.02;;
58017;SDS011;43810;50.860;19.226;2023-02-11T05:26:31;51.67;;;22.33;;
58017;SDS011;43810;50.860;19.226;2023-02-11T05:28:57;55.95;;;23.30;;
58017;SDS011;43810;50.860;19.226;2023-02-11T05:31:22;50.47;;;23.05;;
58017;SDS011;43810;50.860;19.226;2023-02-11T05:33:48;52.63;;;21.30;;
58017;SDS011;43810;50.860;19.226;2023-02-11T05:36:14;48.63;;;20.40;;
58017;SDS011;43810;50.860;19.226;2023-02-11T05:38:41;51.42;;;21.35;;
58017;SDS011;43810;50.860;19.226;2023-02-11T05:41:08;49.35;;;22.95;;
58017;SDS011;43810;50.860;19.226;2023-02-11T05:43:35;45.40;;;20.88;;
58017;SDS011;43810;50.860;19.226;2023-02-11T05:46:02;53.15;;;22.73;;
58017;SDS011;43810;50.860;19.226;2023-02-11T05:48:29;44.72;;;21.42;;
58017;SDS011;43810;50.860;19.226;2023-02-11T05:50:55;49.00;;;21.73;;
58017;SDS011;43810;50.860;19.226;2023-02-11T05:53:21;53.95;;;21.58;;
58017;SDS011;43810;50.860;19.226;2023-02-11T05:55:47;43.72;;;21.15;;
58017;SDS011;43810;50.860;19.226;2023-02-11T05:58:13;50.60;;;21.88;;
58017;SDS011;43810;50.860;19.226;2023-02-11T06:00:39;46.67;;;21.73;;
58017;SDS011;43810;50.860;19.226;2023-02-11T06:03:05;48.58;;;20.88;;
58017;SDS011;43810;50.860;19.226;2023-02-11T06:05:31;52.95;;;22.00;;
58017;SDS011;43810;50.860;19.226;2023-02-11T06:07:57;57.67;;;20.20;;
58017;SDS011;43810;50.860;19.226;2023-02-11T06:10:23;49.25;;;20.85;;
58017;SDS011;43810;50.860;19.226;2023-02-11T06:12:49;48.95;;;22.58;;
58017;SDS011;43810;50.860;19.226;2023-02-11T06:15:15;43.15;;;21.90;;
58017;SDS011;43810;50.860;19.226;2023-02-11T06:17:40;48.90;;;21.55;;
58017;SDS011;43810;50.860;19.226;2023-02-11T06:20:07;51.25;;;22.52;;
58017;SDS011;43810;50.860;19.226;2023-02-11T06:22:34;55.67;;;23.33;;
58017;SDS011;43810;50.860;19.226;2023-02-11T06:25:01;59.53;;;23.00;;
58017;SDS011;43810;50.860;19.226;2023-02-11T06:27:26;48.25;;;22.27;;
58017;SDS011;43810;50.860;19.226;2023-02-11T06:29:53;51.55;;;20.83;;
58017;SDS011;43810;50.860;19.226;2023-02-11T06:32:18;55.75;;;23.85;;
58017;SDS011;43810;50.860;19.226;2023-02-11T06:34:45;56.17;;;23.20;;
58017;SDS011;43810;50.860;19.226;2023-02-11T06:37:11;55.22;;;21.77;;
58017;SDS011;43810;50.860;19.226;2023-02-11T06:39:37;49.90;;;24.42;;
58017;SDS011;43810;50.860;19.226;2023-02-11T06:42:03;63.47;;;23.88;;
58017;SDS011;43810;50.860;19.226;2023-02-11T06:44:29;56.70;;;23.15;;
58017;SDS011;43810;50.860;19.226;2023-02-11T06:46:55;60.03;;;22.55;;
58017;SDS011;43810;50.860;19.226;2023-02-11T06:49:21;48.95;;;21.40;;
58017;SDS011;43810;50.860;19.226;2023-02-11T06:51:46;55.22;;;22.58;;
58017;SDS011;43810;50.860;19.226;2023-02-11T06:54:12;47.92;;;21.70;;
58017;SDS011;43810;50.860;19.226;2023-02-11T06:56:39;52.33;;;21.70;;
58017;SDS011;43810;50.860;19.226;2023-02-11T06:59:05;58.38;;;22.80;;
58017;SDS011;43810;50.860;19.226;2023-02-11T07:01:31;47.65;;;21.05;;
58017;SDS011;43810;50.860;19.226;2023-02-11T07:03:57;52.22;;;23.20;;
58017;SDS011;43810;50.860;19.226;2023-02-11T07:06:24;49.85;;;23.08;;
58017;SDS011;43810;50.860;19.226;2023-02-11T07:08:52;48.92;;;21.17;;
58017;SDS011;43810;50.860;19.226;2023-02-11T07:11:23;42.30;;;20.45;;
58017;SDS011;43810;50.860;19.226;2023-02-11T07:13:52;51.50;;;22.45;;
58017;SDS011;43810;50.860;19.226;2023-02-11T07:16:20;49.83;;;22.20;;
58017;SDS011;43810;50.860;19.226;2023-02-11T07:18:47;48.03;;;21.63;;
58017;SDS011;43810;50.860;19.226;2023-02-11T07:21:14;45.35;;;21.67;;
58017;SDS011;43810;50.860;19.226;2023-02-11T07:23:43;47.13;;;20.80;;
58017;SDS011;43810;50.860;19.226;2023-02-11T07:26:11;51.78;;;21.30;;
58017;SDS011;43810;50.860;19.226;2023-02-11T07:28:39;52.17;;;21.98;;
58017;SDS011;43810;50.860;19.226;2023-02-11T07:31:13;50.58;;;21.80;;
58017;SDS011;43810;50.860;19.226;2023-02-11T07:33:43;48.83;;;21.23;;
58017;SDS011;43810;50.860;19.226;2023-02-11T07:36:10;41.22;;;20.48;;
58017;SDS011;43810;50.860;19.226;2023-02-11T07:38:37;46.92;;;21.70;;
58017;SDS011;43810;50.860;19.226;2023-02-11T07:41:04;51.85;;;21.30;;
58017;SDS011;43810;50.860;19.226;2023-02-11T07:43:32;48.28;;;21.60;;
58017;SDS011;43810;50.860;19.226;2023-02-11T07:46:02;53.47;;;22.17;;
58017;SDS011;43810;50.860;19.226;2023-02-11T07:48:29;50.35;;;21.95;;
58017;SDS011;43810;50.860;19.226;2023-02-11T07:50:55;55.13;;;23.02;;
58017;SDS011;43810;50.860;19.226;2023-02-11T07:53:21;50.38;;;21.13;;
58017;SDS011;43810;50.860;19.226;2023-02-11T07:55:47;49.28;;;21.05;;
58017;SDS011;43810;50.860;19.226;2023-02-11T07:58:12;43.55;;;20.15;;
58017;SDS011;43810;50.860;19.226;2023-02-11T08:00:38;55.33;;;24.30;;
58017;SDS011;43810;50.860;19.226;2023-02-11T08:03:04;49.00;;;21.30;;
58017;SDS011;43810;50.860;19.226;2023-02-11T08:05:32;46.08;;;19.85;;
58017;SDS011;43810;50.860;19.226;2023-02-11T08:08:01;49.97;;;20.38;;
58017;SDS011;43810;50.860;19.226;2023-02-11T08:10:27;51.10;;;22.30;;
58017;SDS011;43810;50.860;19.226;2023-02-11T08:12:53;47.58;;;21.20;;
58017;SDS011;43810;50.860;19.226;2023-02-11T08:15:20;49.22;;;23.45;;
58017;SDS011;43810;50.860;19.226;2023-02-11T08:17:45;56.20;;;24.35;;
58017;SDS011;43810;50.860;19.226;2023-02-11T08:20:11;49.13;;;22.63;;
58017;SDS011;43810;50.860;19.226;2023-02-11T08:22:37;42.40;;;19.67;;
58017;SDS011;43810;50.860;19.226;2023-02-11T08:25:04;50.15;;;20.25;;
58017;SDS011;43810;50.860;19.226;2023-02-11T08:27:30;49.20;;;21.85;;
58017;SDS011;43810;50.860;19.226;2023-02-11T08:29:56;46.40;;;20.80;;
58017;SDS011;43810;50.860;19.226;2023-02-11T08:32:23;50.03;;;20.65;;
58017;SDS011;43810;50.860;19.226;2023-02-11T08:34:52;49.58;;;23.67;;
58017;SDS011;43810;50.860;19.226;2023-02-11T08:37:18;54.17;;;22.10;;
58017;SDS011;43810;50.860;19.226;2023-02-11T08:39:45;44.97;;;21.90;;
58017;SDS011;43810;50.860;19.226;2023-02-11T08:42:11;55.08;;;23.48;;
58017;SDS011;43810;50.860;19.226;2023-02-11T08:44:38;59.95;;;25.02;;
58017;SDS011;43810;50.860;19.226;2023-02-11T08:47:04;48.08;;;21.98;;
58017;SDS011;43810;50.860;19.226;2023-02-11T08:49:30;44.50;;;20.63;;
58017;SDS011;43810;50.860;19.226;2023-02-11T08:51:57;54.08;;;23.38;;
58017;SDS011;43810;50.860;19.226;2023-02-11T08:54:26;68.57;;;25.60;;
58017;SDS011;43810;50.860;19.226;2023-02-11T08:56:52;49.67;;;22.23;;
58017;SDS011;43810;50.860;19.226;2023-02-11T08:59:18;49.05;;;23.13;;
58017;SDS011;43810;50.860;19.226;2023-02-11T09:01:44;49.20;;;23.45;;
58017;SDS011;43810;50.860;19.226;2023-02-11T09:04:11;49.45;;;22.83;;
58017;SDS011;43810;50.860;19.226;2023-02-11T09:06:37;46.83;;;21.40;;
58017;SDS011;43810;50.860;19.226;2023-02-11T09:09:04;53.03;;;22.08;;
58017;SDS011;43810;50.860;19.226;2023-02-11T09:11:31;52.30;;;19.95;;
58017;SDS011;43810;50.860;19.226;2023-02-11T09:14:00;45.03;;;20.23;;
58017;SDS011;43810;50.860;19.226;2023-02-11T09:16:27;43.67;;;21.02;;
58017;SDS011;43810;50.860;19.226;2023-02-11T09:18:55;50.50;;;22.13;;
58017;SDS011;43810;50.860;19.226;2023-02-11T09:21:22;51.53;;;21.98;;
58017;SDS011;43810;50.860;19.226;2023-02-11T09:23:48;48.95;;;22.42;;
58017;SDS011;43810;50.860;19.226;2023-02-11T09:26:15;53.15;;;22.67;;
58017;SDS011;43810;50.860;19.226;2023-02-11T09:28:44;53.38;;;21.80;;
58017;SDS011;43810;50.860;19.226;2023-02-11T09:31:12;51.38;;;20.95;;
58017;SDS011;43810;50.860;19.226;2023-02-11T09:33:39;46.03;;;20.27;;
58017;SDS011;43810;50.860;19.226;2023-02-11T09:36:12;48.88;;;21.17;;
58017;SDS011;43810;50.860;19.226;2023-02-11T09:38:44;44.80;;;19.90;;
58017;SDS011;43810;50.860;19.226;2023-02-11T09:43:58;45.70;;;20.17;;
58017;SDS011;43810;50.860;19.226;2023-02-11T09:46:29;48.55;;;20.20;;
58017;SDS011;43810;50.860;19.226;2023-02-11T09:48:59;41.47;;;18.70;;
58017;SDS011;43810;50.860;19.226;2023-02-11T09:53:59;61.25;;;24.40;;
58017;SDS011;43810;50.860;19.226;2023-02-11T09:56:32;48.33;;;21.40;;
58017;SDS011;43810;50.860;19.226;2023-02-11T09:58:58;45.42;;;19.10;;
58017;SDS011;43810;50.860;19.226;2023-02-11T10:01:35;43.88;;;20.80;;
58017;SDS011;43810;50.860;19.226;2023-02-11T10:06:55;43.80;;;18.85;;
58017;SDS011;43810;50.860;19.226;2023-02-11T10:15:17;42.33;;;18.38;;
58017;SDS011;43810;50.860;19.226;2023-02-11T10:23:26;44.38;;;17.85;;
58017;SDS011;43810;50.860;19.226;2023-02-11T10:26:02;40.78;;;18.15;;
58017;SDS011;43810;50.860;19.226;2023-02-11T10:28:33;33.65;;;18.15;;
58017;SDS011;43810;50.860;19.226;2023-02-11T10:31:01;48.78;;;21.23;;
58017;SDS011;43810;50.860;19.226;2023-02-11T10:33:59;38.42;;;18.30;;
58017;SDS011;43810;50.860;19.226;2023-02-11T10:36:28;42.00;;;19.38;;
58017;SDS011;43810;50.860;19.226;2023-02-11T10:39:19;41.53;;;19.58;;
58017;SDS011;43810;50.860;19.226;2023-02-11T10:41:46;50.15;;;19.83;;
58017;SDS011;43810;50.860;19.226;2023-02-11T10:46:53;49.17;;;21.70;;
58017;SDS011;43810;50.860;19.226;2023-02-11T10:49:32;46.42;;;21.55;;
58017;SDS011;43810;50.860;19.226;2023-02-11T10:52:14;45.53;;;20.75;;
58017;SDS011;43810;50.860;19.226;2023-02-11T10:55:08;43.97;;;21.73;;
58017;SDS011;43810;50.860;19.226;2023-02-11T10:57:48;48.67;;;21.27;;
58017;SDS011;43810;50.860;19.226;2023-02-11T11:00:35;48.97;;;21.95;;
58017;SDS011;43810;50.860;19.226;2023-02-11T11:03:16;51.88;;;22.65;;
58017;SDS011;43810;50.860;19.226;2023-02-11T11:08:46;45.47;;;20.50;;
58017;SDS011;43810;50.860;19.226;2023-02-11T11:11:16;50.08;;;20.80;;
58017;SDS011;43810;50.860;19.226;2023-02-11T11:14:00;44.45;;;22.25;;
58017;SDS011;43810;50.860;19.226;2023-02-11T11:16:28;49.13;;;21.48;;
58017;SDS011;43810;50.860;19.226;2023-02-11T11:21:39;51.17;;;23.05;;
58017;SDS011;43810;50.860;19.226;2023-02-11T11:24:09;53.40;;;22.25;;
58017;SDS011;43810;50.860;19.226;2023-02-11T11:26:59;51.03;;;25.00;;
58017;SDS011;43810;50.860;19.226;2023-02-11T11:30:00;52.85;;;23.75;;
58017;SDS011;43810;50.860;19.226;2023-02-11T11:32:23;53.95;;;23.13;;
58017;SDS011;43810;50.860;19.226;2023-02-11T11:34:58;47.65;;;23.05;;
58017;SDS011;43810;50.860;19.226;2023-02-11T11:37:45;44.80;;;22.00;;
58017;SDS011;43810;50.860;19.226;2023-02-11T11:40:27;52.65;;;24.58;;
58017;SDS011;43810;50.860;19.226;2023-02-11T11:43:05;64.32;;;24.45;;
58017;SDS011;43810;50.860;19.226;2023-02-11T11:45:51;56.05;;;24.23;;
58017;SDS011;43810;50.860;19.226;2023-02-11T11:48:25;57.10;;;22.05;;
58017;SDS011;43810;50.860;19.226;2023-02-11T11:51:01;60.58;;;24.95;;
58017;SDS011;43810;50.860;19.226;2023-02-11T11:58:53;68.47;;;30.02;;
58017;SDS011;43810;50.860;19.226;2023-02-11T12:15:46;80.63;;;31.80;;
58017;SDS011;43810;50.860;19.226;2023-02-11T12:23:35;68.93;;;31.65;;
58017;SDS011;43810;50.860;19.226;2023-02-11T12:28:49;73.13;;;30.35;;
58017;SDS011;43810;50.860;19.226;2023-02-11T12:39:32;69.40;;;27.83;;
58017;SDS011;43810;50.860;19.226;2023-02-11T12:56:21;60.08;;;27.42;;
58017;SDS011;43810;50.860;19.226;2023-02-11T12:58:54;74.82;;;29.90;;
58017;SDS011;43810;50.860;19.226;2023-02-11T13:01:58;63.53;;;28.35;;
58017;SDS011;43810;50.860;19.226;2023-02-11T13:04:51;75.20;;;28.05;;
58017;SDS011;43810;50.860;19.226;2023-02-11T13:07:23;65.10;;;27.70;;
58017;SDS011;43810;50.860;19.226;2023-02-11T13:12:48;78.18;;;30.95;;
58017;SDS011;43810;50.860;19.226;2023-02-11T13:15:35;90.95;;;32.95;;
58017;SDS011;43810;50.860;19.226;2023-02-11T13:21:01;81.72;;;34.90;;
58017;SDS011;43810;50.860;19.226;2023-02-11T13:32:12;85.63;;;33.47;;
58017;SDS011;43810;50.860;19.226;2023-02-11T13:39:56;77.38;;;30.92;;
58017;SDS011;43810;50.860;19.226;2023-02-11T13:42:55;84.85;;;35.10;;
58017;SDS011;43810;50.860;19.226;2023-02-11T13:45:27;84.88;;;35.22;;
58017;SDS011;43810;50.860;19.226;2023-02-11T13:47:58;79.97;;;33.28;;
58017;SDS011;43810;50.860;19.226;2023-02-11T13:50:46;79.68;;;31.67;;
58017;SDS011;43810;50.860;19.226;2023-02-11T13:53:14;86.00;;;31.85;;
58017;SDS011;43810;50.860;19.226;2023-02-11T13:55:45;76.10;;;30.73;;
58017;SDS011;43810;50.860;19.226;2023-02-11T14:00:45;82.35;;;35.17;;
58017;SDS011;43810;50.860;19.226;2023-02-11T14:19:33;87.40;;;37.30;;
58017;SDS011;43810;50.860;19.226;2023-02-11T14:22:04;81.13;;;34.75;;
58017;SDS011;43810;50.860;19.226;2023-02-11T14:27:08;79.78;;;33.17;;
58017;SDS011;43810;50.860;19.226;2023-02-11T14:43:43;85.28;;;31.52;;
58017;SDS011;43810;50.860;19.226;2023-02-11T14:46:13;88.97;;;33.30;;
58017;SDS011;43810;50.860;19.226;2023-02-11T14:48:42;94.63;;;33.45;;
58017;SDS011;43810;50.860;19.226;2023-02-11T14:51:56;85.50;;;33.30;;
58017;SDS011;43810;50.860;19.226;2023-02-11T14:54:25;81.82;;;29.25;;
58017;SDS011;43810;50.860;19.226;2023-02-11T14:59:59;71.72;;;27.42;;
58017;SDS011;43810;50.860;19.226;2023-02-11T15:02:29;81.43;;;30.35;;
58017;SDS011;43810;50.860;19.226;2023-02-11T15:07:59;83.63;;;29.45;;
58017;SDS011;43810;50.860;19.226;2023-02-11T15:10:30;78.88;;;30.13;;
58017;SDS011;43810;50.860;19.226;2023-02-11T15:13:05;82.65;;;31.58;;
58017;SDS011;43810;50.860;19.226;2023-02-11T15:15:33;81.35;;;31.17;;
58017;SDS011;43810;50.860;19.226;2023-02-11T15:18:02;85.07;;;32.28;;
58017;SDS011;43810;50.860;19.226;2023-02-11T15:20:30;97.63;;;32.05;;
58017;SDS011;43810;50.860;19.226;2023-02-11T15:22:58;86.72;;;31.25;;
58017;SDS011;43810;50.860;19.226;2023-02-11T15:25:30;84.60;;;31.77;;
58017;SDS011;43810;50.860;19.226;2023-02-11T15:27:56;82.57;;;30.58;;
58017;SDS011;43810;50.860;19.226;2023-02-11T15:30:31;82.28;;;30.63;;
58017;SDS011;43810;50.860;19.226;2023-02-11T15:32:59;90.70;;;34.22;;
58017;SDS011;43810;50.860;19.226;2023-02-11T15:37:54;87.53;;;30.80;;
58017;SDS011;43810;50.860;19.226;2023-02-11T15:40:25;84.88;;;33.42;;
58017;SDS011;43810;50.860;19.226;2023-02-11T15:42:57;79.28;;;30.90;;
58017;SDS011;43810;50.860;19.226;2023-02-11T15:45:34;88.70;;;32.85;;
58017;SDS011;43810;50.860;19.226;2023-02-11T15:48:18;93.68;;;33.75;;
58017;SDS011;43810;50.860;19.226;2023-02-11T15:50:51;99.50;;;37.63;;
58017;SDS011;43810;50.860;19.226;2023-02-11T15:53:27;88.97;;;31.35;;
58017;SDS011;43810;50.860;19.226;2023-02-11T15:56:02;91.80;;;31.05;;
58017;SDS011;43810;50.860;19.226;2023-02-11T15:58:37;97.65;;;34.45;;
58017;SDS011;43810;50.860;19.226;2023-02-11T16:01:05;91.05;;;33.15;;
58017;SDS011;43810;50.860;19.226;2023-02-11T16:03:32;105.88;;;37.85;;
58017;SDS011;43810;50.860;19.226;2023-02-11T16:06:18;103.10;;;36.30;;
58017;SDS011;43810;50.860;19.226;2023-02-11T16:09:01;95.25;;;33.42;;
58017;SDS011;43810;50.860;19.226;2023-02-11T16:11:31;95.18;;;35.33;;
58017;SDS011;43810;50.860;19.226;2023-02-11T16:13:59;95.82;;;36.80;;
58017;SDS011;43810;50.860;19.226;2023-02-11T16:16:30;108.13;;;36.80;;
58017;SDS011;43810;50.860;19.226;2023-02-11T16:18:59;111.22;;;36.20;;
58017;SDS011;43810;50.860;19.226;2023-02-11T16:21:45;108.80;;;37.03;;
58017;SDS011;43810;50.860;19.226;2023-02-11T16:24:16;96.38;;;33.15;;
58017;SDS011;43810;50.860;19.226;2023-02-11T16:26:50;105.40;;;35.28;;
58017;SDS011;43810;50.860;19.226;2023-02-11T16:29:40;98.75;;;33.83;;
58017;SDS011;43810;50.860;19.226;2023-02-11T16:34:43;94.68;;;36.08;;
58017;SDS011;43810;50.860;19.226;2023-02-11T16:37:09;103.72;;;36.28;;
58017;SDS011;43810;50.860;19.226;2023-02-11T16:39:35;100.30;;;35.05;;
58017;SDS011;43810;50.860;19.226;2023-02-11T16:42:02;100.22;;;34.42;;
58017;SDS011;43810;50.860;19.226;2023-02-11T16:44:28;90.25;;;33.00;;
58017;SDS011;43810;50.860;19.226;2023-02-11T16:46:55;98.05;;;33.85;;
58017;SDS011;43810;50.860;19.226;2023-02-11T16:49:33;93.78;;;32.22;;
58017;SDS011;43810;50.860;19.226;2023-02-11T16:52:06;104.22;;;34.15;;
58017;SDS011;43810;50.860;19.226;2023-02-11T16:54:37;88.07;;;32.72;;
58017;SDS011;43810;50.860;19.226;2023-02-11T16:57:25;100.93;;;32.50;;
58017;SDS011;43810;50.860;19.226;2023-02-11T16:59:50;87.38;;;29.70;;
58017;SDS011;43810;50.860;19.226;2023-02-11T17:04:54;93.05;;;31.38;;
58017;SDS011;43810;50.860;19.226;2023-02-11T17:07:22;89.60;;;31.30;;
58017;SDS011;43810;50.860;19.226;2023-02-11T17:09:49;98.57;;;32.30;;
58017;SDS011;43810;50.860;19.226;2023-02-11T17:12:17;90.80;;;33.95;;
58017;SDS011;43810;50.860;19.226;2023-02-11T17:14:43;94.72;;;30.90;;
58017;SDS011;43810;50.860;19.226;2023-02-11T17:17:09;83.88;;;29.70;;
58017;SDS011;43810;50.860;19.226;2023-02-11T17:19:35;91.88;;;29.65;;
58017;SDS011;43810;50.860;19.226;2023-02-11T17:22:02;91.15;;;30.13;;
58017;SDS011;43810;50.860;19.226;2023-02-11T17:24:28;86.22;;;33.33;;
58017;SDS011;43810;50.860;19.226;2023-02-11T17:26:54;90.28;;;32.50;;
58017;SDS011;43810;50.860;19.226;2023-02-11T17:29:21;87.93;;;31.23;;
58017;SDS011;43810;50.860;19.226;2023-02-11T17:31:49;86.18;;;31.30;;
58017;SDS011;43810;50.860;19.226;2023-02-11T17:34:16;88.65;;;31.15;;
58017;SDS011;43810;50.860;19.226;2023-02-11T17:36:43;93.75;;;33.72;;
58017;SDS011;43810;50.860;19.226;2023-02-11T17:39:09;86.65;;;30.90;;
58017;SDS011;43810;50.860;19.226;2023-02-11T17:41:36;79.55;;;30.98;;